sensor_id;sensor_type;location;lat;lon;timestamp;pressure;altitude;pressure_sealevel;temperature;humidity
67345;BME280;54230;52.402;6.276;2023-02-28T00:00:00;103240.00000000001;;;3.1;83.2
67345;BME280;54230;52.402;6.276;2023-02-28T00:05:00;103230.0;;;3.1;83.1
67345;BME280;54230;52.402;6.276;2023-02-28T00:10:00;103230.0;;;3.2;82.9
67345;BME280;54230;52.402;6.276;2023-02-28T00:15:00;103230.0;;;3.2;83.4
67345;BME280;54230;52.402;6.276;2023-02-28T00:20:00;103230.0;;;3.2;83.1
67345;BME280;54230;52.402;6.276;2023-02-28T00:25:00;103230.0;;;3.2;83.7
67345;BME280;54230;52.402;6.276;2023-02-28T00:30:00;103230.0;;;3.2;83.9
67345;BME280;54230;52.402;6.276;2023-02-28T00:35:00;103220.0;;;3.3;84.2
67345;BME280;54230;52.402;6.276;2023-02-28T00:40:00;103230.0;;;3.3;83.8
67345;BME280;54230;52.402;6.276;2023-02-28T00:45:01;103230.0;;;3.4;83.9
67345;BME280;54230;52.402;6.276;2023-02-28T00:50:00;103220.0;;;3.3;84.0
67345;BME280;54230;52.402;6.276;2023-02-28T00:55:00;103230.0;;;3.3;84.1
67345;BME280;54230;52.402;6.276;2023-02-28T01:00:00;103230.0;;;3.2;84.9
67345;BME280;54230;52.402;6.276;2023-02-28T01:05:00;103230.0;;;3.2;84.8
67345;BME280;54230;52.402;6.276;2023-02-28T01:10:00;103220.0;;;3.3;84.7
67345;BME280;54230;52.402;6.276;2023-02-28T01:15:00;103220.0;;;3.2;85.2
67345;BME280;54230;52.402;6.276;2023-02-28T01:20:00;103220.0;;;3.3;84.7
67345;BME280;54230;52.402;6.276;2023-02-28T01:25:00;103220.0;;;3.3;84.4
67345;BME280;54230;52.402;6.276;2023-02-28T01:30:00;103200.0;;;3.1;84.7
67345;BME280;54230;52.402;6.276;2023-02-28T01:35:00;103220.0;;;3.2;84.7
67345;BME280;54230;52.402;6.276;2023-02-28T01:40:00;103209.99999999999;;;3.1;84.8
67345;BME280;54230;52.402;6.276;2023-02-28T01:45:04;103220.0;;;3.2;84.8
67345;BME280;54230;52.402;6.276;2023-02-28T01:50:02;103209.99999999999;;;3.3;84.7
67345;BME280;54230;52.402;6.276;2023-02-28T01:55:02;103209.99999999999;;;3.2;84.7
67345;BME280;54230;52.402;6.276;2023-02-28T02:00:03;103190.00000000001;;;3.1;84.8
67345;BME280;54230;52.402;6.276;2023-02-28T02:05:06;103209.99999999999;;;3.3;85.0
67345;BME280;54230;52.402;6.276;2023-02-28T02:10:02;103200.0;;;3.3;84.8
67345;BME280;54230;52.402;6.276;2023-02-28T02:15:04;103200.0;;;3.3;84.9
67345;BME280;54230;52.402;6.276;2023-02-28T02:20:16;103200.0;;;3.4;84.8
67345;BME280;54230;52.402;6.276;2023-02-28T02:25:12;103209.99999999999;;;3.4;84.6
67345;BME280;54230;52.402;6.276;2023-02-28T02:35:09;103209.99999999999;;;3.3;85.4
67345;BME280;54230;52.402;6.276;2023-02-28T02:40:03;103209.99999999999;;;3.3;85.5
67345;BME280;54230;52.402;6.276;2023-02-28T02:45:03;103209.99999999999;;;3.3;85.4
67345;BME280;54230;52.402;6.276;2023-02-28T02:50:02;103209.99999999999;;;3.3;85.8
67345;BME280;54230;52.402;6.276;2023-02-28T02:55:02;103209.99999999999;;;3.4;85.9
67345;BME280;54230;52.402;6.276;2023-02-28T03:00:02;103220.0;;;3.4;86.0
67345;BME280;54230;52.402;6.276;2023-02-28T03:05:03;103220.0;;;3.4;86.1
67345;BME280;54230;52.402;6.276;2023-02-28T03:10:00;103220.0;;;3.3;86.0
67345;BME280;54230;52.402;6.276;2023-02-28T03:15:07;103230.0;;;3.4;85.6
67345;BME280;54230;52.402;6.276;2023-02-28T03:20:07;103230.0;;;3.3;85.9
67345;BME280;54230;52.402;6.276;2023-02-28T03:25:05;103220.0;;;3.3;86.0
67345;BME280;54230;52.402;6.276;2023-02-28T03:30:03;103220.0;;;3.2;85.9
67345;BME280;54230;52.402;6.276;2023-02-28T03:35:04;103220.0;;;3.2;85.9
67345;BME280;54230;52.402;6.276;2023-02-28T03:40:03;103220.0;;;3.2;85.3
67345;BME280;54230;52.402;6.276;2023-02-28T03:45:03;103220.0;;;3.2;84.7
67345;BME280;54230;52.402;6.276;2023-02-28T03:50:03;103220.0;;;3.2;83.3
67345;BME280;54230;52.402;6.276;2023-02-28T03:55:02;103220.0;;;3.2;83.0
67345;BME280;54230;52.402;6.276;2023-02-28T04:00:04;103220.0;;;3.3;82.8
67345;BME280;54230;52.402;6.276;2023-02-28T04:05:00;103209.99999999999;;;3.2;82.0
67345;BME280;54230;52.402;6.276;2023-02-28T04:10:00;103209.99999999999;;;3.2;81.3
67345;BME280;54230;52.402;6.276;2023-02-28T04:15:00;103209.99999999999;;;3.2;80.6
67345;BME280;54230;52.402;6.276;2023-02-28T04:20:00;103209.99999999999;;;3.2;80.0
67345;BME280;54230;52.402;6.276;2023-02-28T04:25:00;103209.99999999999;;;3.2;79.0
67345;BME280;54230;52.402;6.276;2023-02-28T04:30:00;103209.99999999999;;;3.2;78.7
67345;BME280;54230;52.402;6.276;2023-02-28T04:35:00;103200.0;;;3.2;77.7
67345;BME280;54230;52.402;6.276;2023-02-28T04:40:00;103190.00000000001;;;3.1;77.4
67345;BME280;54230;52.402;6.276;2023-02-28T04:45:00;103209.99999999999;;;3.0;77.6
67345;BME280;54230;52.402;6.276;2023-02-28T04:50:00;103200.0;;;3.1;76.8
67345;BME280;54230;52.402;6.276;2023-02-28T04:55:00;103209.99999999999;;;3.1;77.1
67345;BME280;54230;52.402;6.276;2023-02-28T05:00:00;103209.99999999999;;;3.1;77.4
67345;BME280;54230;52.402;6.276;2023-02-28T05:05:00;103209.99999999999;;;3.2;77.9
67345;BME280;54230;52.402;6.276;2023-02-28T05:10:00;103200.0;;;3.1;77.6
67345;BME280;54230;52.402;6.276;2023-02-28T05:15:00;103200.0;;;3.1;77.2
67345;BME280;54230;52.402;6.276;2023-02-28T05:20:00;103200.0;;;3.0;77.7
67345;BME280;54230;52.402;6.276;2023-02-28T05:25:00;103200.0;;;3.0;77.6
67345;BME280;54230;52.402;6.276;2023-02-28T05:30:00;103209.99999999999;;;3.0;77.6
67345;BME280;54230;52.402;6.276;2023-02-28T05:35:00;103209.99999999999;;;3.0;77.8
67345;BME280;54230;52.402;6.276;2023-02-28T05:40:00;103209.99999999999;;;3.0;77.6
67345;BME280;54230;52.402;6.276;2023-02-28T05:45:00;103209.99999999999;;;3.0;77.5
67345;BME280;54230;52.402;6.276;2023-02-28T05:50:00;103190.00000000001;;;2.9;77.2
67345;BME280;54230;52.402;6.276;2023-02-28T05:55:00;103220.0;;;3.0;77.2
67345;BME280;54230;52.402;6.276;2023-02-28T06:00:01;103209.99999999999;;;2.9;77.2
67345;BME280;54230;52.402;6.276;2023-02-28T06:05:00;103209.99999999999;;;2.9;77.4
67345;BME280;54230;52.402;6.276;2023-02-28T06:10:00;103209.99999999999;;;2.9;77.5
67345;BME280;54230;52.402;6.276;2023-02-28T06:15:00;103220.0;;;2.9;77.4
67345;BME280;54230;52.402;6.276;2023-02-28T06:20:00;103220.0;;;2.9;77.3
67345;BME280;54230;52.402;6.276;2023-02-28T06:25:00;103220.0;;;2.9;77.2
67345;BME280;54230;52.402;6.276;2023-02-28T06:30:00;103220.0;;;2.9;77.6
67345;BME280;54230;52.402;6.276;2023-02-28T06:35:00;103230.0;;;2.9;77.4
67345;BME280;54230;52.402;6.276;2023-02-28T06:40:00;103230.0;;;2.9;77.0
67345;BME280;54230;52.402;6.276;2023-02-28T06:45:00;103240.00000000001;;;3.0;76.7
67345;BME280;54230;52.402;6.276;2023-02-28T06:50:00;103250.0;;;3.0;76.8
67345;BME280;54230;52.402;6.276;2023-02-28T06:55:00;103250.0;;;3.1;76.8
67345;BME280;54230;52.402;6.276;2023-02-28T07:00:02;103250.0;;;3.1;76.6
67345;BME280;54230;52.402;6.276;2023-02-28T07:05:00;103250.0;;;3.2;77.1
67345;BME280;54230;52.402;6.276;2023-02-28T07:10:00;103250.0;;;3.2;77.0
67345;BME280;54230;52.402;6.276;2023-02-28T07:15:00;103250.0;;;3.3;76.5
67345;BME280;54230;52.402;6.276;2023-02-28T07:20:00;103270.0;;;3.4;76.3
67345;BME280;54230;52.402;6.276;2023-02-28T07:25:00;103270.0;;;3.5;74.8
67345;BME280;54230;52.402;6.276;2023-02-28T07:30:00;103280.0;;;3.7;74.2
67345;BME280;54230;52.402;6.276;2023-02-28T07:35:00;103280.0;;;3.9;74.4
67345;BME280;54230;52.402;6.276;2023-02-28T07:40:00;103280.0;;;4.1;73.2
67345;BME280;54230;52.402;6.276;2023-02-28T07:45:00;103290.00000000001;;;4.3;72.9
67345;BME280;54230;52.402;6.276;2023-02-28T07:50:00;103290.00000000001;;;4.5;72.2
67345;BME280;54230;52.402;6.276;2023-02-28T07:55:00;103290.00000000001;;;4.5;72.0
67345;BME280;54230;52.402;6.276;2023-02-28T08:00:00;103300.0;;;4.6;71.5
67345;BME280;54230;52.402;6.276;2023-02-28T08:05:00;103300.0;;;4.7;70.3
67345;BME280;54230;52.402;6.276;2023-02-28T08:10:00;103290.00000000001;;;4.9;69.1
67345;BME280;54230;52.402;6.276;2023-02-28T08:15:00;103290.00000000001;;;4.8;66.8
67345;BME280;54230;52.402;6.276;2023-02-28T08:20:00;103300.0;;;4.7;63.5
67345;BME280;54230;52.402;6.276;2023-02-28T08:25:00;103280.0;;;4.3;60.7
67345;BME280;54230;52.402;6.276;2023-02-28T08:30:00;103300.0;;;4.3;60.6
67345;BME280;54230;52.402;6.276;2023-02-28T08:35:00;103300.0;;;4.1;59.9
67345;BME280;54230;52.402;6.276;2023-02-28T08:40:00;103309.99999999999;;;3.9;59.4
67345;BME280;54230;52.402;6.276;2023-02-28T08:45:00;103300.0;;;3.9;59.7
67345;BME280;54230;52.402;6.276;2023-02-28T08:50:00;103300.0;;;4.2;59.3
67345;BME280;54230;52.402;6.276;2023-02-28T08:55:00;103300.0;;;4.6;57.3
67345;BME280;54230;52.402;6.276;2023-02-28T09:00:00;103290.00000000001;;;4.8;55.9
67345;BME280;54230;52.402;6.276;2023-02-28T09:05:00;103290.00000000001;;;4.8;51.1
67345;BME280;54230;52.402;6.276;2023-02-28T09:10:00;103290.00000000001;;;4.8;47.4
67345;BME280;54230;52.402;6.276;2023-02-28T09:15:00;103300.0;;;4.9;44.8
67345;BME280;54230;52.402;6.276;2023-02-28T09:20:00;103309.99999999999;;;5.1;44.2
67345;BME280;54230;52.402;6.276;2023-02-28T09:25:00;103300.0;;;5.2;44.1
67345;BME280;54230;52.402;6.276;2023-02-28T09:30:00;103300.0;;;5.4;43.7
67345;BME280;54230;52.402;6.276;2023-02-28T09:35:00;103300.0;;;5.5;43.0
67345;BME280;54230;52.402;6.276;2023-02-28T09:40:00;103300.0;;;5.8;42.8
67345;BME280;54230;52.402;6.276;2023-02-28T09:45:02;103290.00000000001;;;6.0;42.8
67345;BME280;54230;52.402;6.276;2023-02-28T09:50:11;103300.0;;;6.0;42.2
67345;BME280;54230;52.402;6.276;2023-02-28T09:55:28;103300.0;;;6.0;43.4
67345;BME280;54230;52.402;6.276;2023-02-28T10:00:10;103300.0;;;6.2;42.0
67345;BME280;54230;52.402;6.276;2023-02-28T10:05:02;103290.00000000001;;;6.4;41.9
67345;BME280;54230;52.402;6.276;2023-02-28T10:10:04;103290.00000000001;;;6.5;41.7
67345;BME280;54230;52.402;6.276;2023-02-28T10:15:01;103290.00000000001;;;6.5;41.7
67345;BME280;54230;52.402;6.276;2023-02-28T10:20:05;103290.00000000001;;;6.8;42.0
67345;BME280;54230;52.402;6.276;2023-02-28T10:25:04;103280.0;;;6.9;41.9
67345;BME280;54230;52.402;6.276;2023-02-28T10:30:01;103290.00000000001;;;7.2;42.0
67345;BME280;54230;52.402;6.276;2023-02-28T10:35:06;103270.0;;;7.2;40.1
67345;BME280;54230;52.402;6.276;2023-02-28T10:40:00;103259.99999999999;;;7.2;40.0
67345;BME280;54230;52.402;6.276;2023-02-28T10:45:11;103280.0;;;7.3;41.1
67345;BME280;54230;52.402;6.276;2023-02-28T10:50:01;103280.0;;;7.6;40.8
67345;BME280;54230;52.402;6.276;2023-02-28T10:55:14;103280.0;;;7.5;39.8
67345;BME280;54230;52.402;6.276;2023-02-28T11:00:11;103270.0;;;7.4;40.3
67345;BME280;54230;52.402;6.276;2023-02-28T11:05:00;103270.0;;;7.4;39.5
67345;BME280;54230;52.402;6.276;2023-02-28T11:10:00;103270.0;;;7.9;39.6
67345;BME280;54230;52.402;6.276;2023-02-28T11:15:03;103259.99999999999;;;8.2;38.8
67345;BME280;54230;52.402;6.276;2023-02-28T11:20:02;103259.99999999999;;;7.7;39.7
67345;BME280;54230;52.402;6.276;2023-02-28T11:25:02;103270.0;;;8.0;39.5
67345;BME280;54230;52.402;6.276;2023-02-28T11:30:00;103259.99999999999;;;8.2;38.6
67345;BME280;54230;52.402;6.276;2023-02-28T11:35:03;103250.0;;;8.3;38.8
67345;BME280;54230;52.402;6.276;2023-02-28T11:40:00;103250.0;;;8.3;37.8
67345;BME280;54230;52.402;6.276;2023-02-28T11:45:12;103230.0;;;8.6;38.7
67345;BME280;54230;52.402;6.276;2023-02-28T11:50:14;103240.00000000001;;;8.7;38.4
67345;BME280;54230;52.402;6.276;2023-02-28T11:55:05;103240.00000000001;;;8.7;37.4
67345;BME280;54230;52.402;6.276;2023-02-28T12:00:06;103230.0;;;8.9;37.3
67345;BME280;54230;52.402;6.276;2023-02-28T12:05:11;103230.0;;;8.7;36.7
67345;BME280;54230;52.402;6.276;2023-02-28T12:10:06;103230.0;;;8.6;36.8
67345;BME280;54230;52.402;6.276;2023-02-28T12:15:17;103230.0;;;8.5;37.6
67345;BME280;54230;52.402;6.276;2023-02-28T12:20:08;103230.0;;;8.8;37.8
67345;BME280;54230;52.402;6.276;2023-02-28T12:30:03;103209.99999999999;;;9.3;36.7
67345;BME280;54230;52.402;6.276;2023-02-28T12:35:03;103200.0;;;9.3;36.5
67345;BME280;54230;52.402;6.276;2023-02-28T12:40:03;103200.0;;;9.0;37.1
67345;BME280;54230;52.402;6.276;2023-02-28T12:45:02;103200.0;;;9.1;36.7
67345;BME280;54230;52.402;6.276;2023-02-28T12:50:04;103200.0;;;9.3;37.0
67345;BME280;54230;52.402;6.276;2023-02-28T12:55:04;103180.0;;;9.2;36.3
67345;BME280;54230;52.402;6.276;2023-02-28T13:00:03;103180.0;;;9.6;36.9
67345;BME280;54230;52.402;6.276;2023-02-28T13:05:14;103180.0;;;9.3;36.6
67345;BME280;54230;52.402;6.276;2023-02-28T13:10:02;103170.0;;;9.6;36.4
67345;BME280;54230;52.402;6.276;2023-02-28T13:15:04;103159.99999999999;;;9.4;35.5
67345;BME280;54230;52.402;6.276;2023-02-28T13:20:00;103159.99999999999;;;9.6;36.2
67345;BME280;54230;52.402;6.276;2023-02-28T13:25:00;103159.99999999999;;;9.6;35.7
67345;BME280;54230;52.402;6.276;2023-02-28T13:30:02;103159.99999999999;;;10.0;36.1
67345;BME280;54230;52.402;6.276;2023-02-28T13:55:20;103140.00000000001;;;10.3;35.0
67345;BME280;54230;52.402;6.276;2023-02-28T14:00:13;103140.00000000001;;;10.3;34.4
67345;BME280;54230;52.402;6.276;2023-02-28T14:05:01;103140.00000000001;;;10.3;35.2
67345;BME280;54230;52.402;6.276;2023-02-28T14:10:02;103130.0;;;10.2;35.2
67345;BME280;54230;52.402;6.276;2023-02-28T14:15:00;103130.0;;;10.3;35.2
67345;BME280;54230;52.402;6.276;2023-02-28T14:20:00;103130.0;;;10.6;35.2
67345;BME280;54230;52.402;6.276;2023-02-28T14:25:09;103130.0;;;10.8;34.4
67345;BME280;54230;52.402;6.276;2023-02-28T14:30:15;103130.0;;;11.0;33.7
67345;BME280;54230;52.402;6.276;2023-02-28T14:35:13;103120.0;;;10.9;34.3
67345;BME280;54230;52.402;6.276;2023-02-28T14:40:00;103120.0;;;11.1;34.1
67345;BME280;54230;52.402;6.276;2023-02-28T14:45:00;103120.0;;;11.6;33.7
67345;BME280;54230;52.402;6.276;2023-02-28T14:50:01;103120.0;;;11.9;33.4
67345;BME280;54230;52.402;6.276;2023-02-28T14:55:03;103120.0;;;12.0;32.4
67345;BME280;54230;52.402;6.276;2023-02-28T15:00:02;103109.99999999999;;;12.0;33.3
67345;BME280;54230;52.402;6.276;2023-02-28T15:05:22;103120.0;;;12.2;33.0
67345;BME280;54230;52.402;6.276;2023-02-28T15:10:09;103130.0;;;12.4;33.3
67345;BME280;54230;52.402;6.276;2023-02-28T15:15:00;103120.0;;;12.8;32.3
67345;BME280;54230;52.402;6.276;2023-02-28T15:20:00;103120.0;;;13.0;32.6
67345;BME280;54230;52.402;6.276;2023-02-28T15:25:02;103109.99999999999;;;13.4;32.4
67345;BME280;54230;52.402;6.276;2023-02-28T15:30:06;103080.0;;;13.1;31.8
67345;BME280;54230;52.402;6.276;2023-02-28T15:35:19;103100.0;;;13.3;30.5
67345;BME280;54230;52.402;6.276;2023-02-28T15:40:10;103100.0;;;13.5;31.0
67345;BME280;54230;52.402;6.276;2023-02-28T15:45:00;103100.0;;;13.6;31.0
67345;BME280;54230;52.402;6.276;2023-02-28T15:50:02;103109.99999999999;;;13.8;30.5
67345;BME280;54230;52.402;6.276;2023-02-28T15:55:08;103109.99999999999;;;13.6;30.6
67345;BME280;54230;52.402;6.276;2023-02-28T16:00:03;103100.0;;;13.7;30.8
67345;BME280;54230;52.402;6.276;2023-02-28T16:10:01;103109.99999999999;;;13.7;30.6
67345;BME280;54230;52.402;6.276;2023-02-28T16:15:02;103109.99999999999;;;13.4;31.1
67345;BME280;54230;52.402;6.276;2023-02-28T16:20:00;103109.99999999999;;;13.3;30.7
67345;BME280;54230;52.402;6.276;2023-02-28T16:25:00;103109.99999999999;;;13.0;31.7
67345;BME280;54230;52.402;6.276;2023-02-28T16:30:00;103100.0;;;12.4;32.8
67345;BME280;54230;52.402;6.276;2023-02-28T16:35:00;103109.99999999999;;;11.2;34.9
67345;BME280;54230;52.402;6.276;2023-02-28T16:40:00;103109.99999999999;;;10.3;36.4
67345;BME280;54230;52.402;6.276;2023-02-28T16:45:00;103120.0;;;9.6;37.8
67345;BME280;54230;52.402;6.276;2023-02-28T16:50:00;103130.0;;;9.1;39.6
67345;BME280;54230;52.402;6.276;2023-02-28T16:55:00;103130.0;;;8.6;41.5
67345;BME280;54230;52.402;6.276;2023-02-28T17:00:00;103130.0;;;8.1;42.1
67345;BME280;54230;52.402;6.276;2023-02-28T17:05:00;103130.0;;;7.8;42.3
67345;BME280;54230;52.402;6.276;2023-02-28T17:10:00;103140.00000000001;;;7.6;43.8
67345;BME280;54230;52.402;6.276;2023-02-28T17:15:00;103140.00000000001;;;7.3;45.0
67345;BME280;54230;52.402;6.276;2023-02-28T17:20:00;103140.00000000001;;;7.1;45.8
67345;BME280;54230;52.402;6.276;2023-02-28T17:25:00;103150.0;;;6.9;46.3
67345;BME280;54230;52.402;6.276;2023-02-28T17:30:00;103159.99999999999;;;6.7;47.4
67345;BME280;54230;52.402;6.276;2023-02-28T17:35:00;103159.99999999999;;;6.5;47.6
67345;BME280;54230;52.402;6.276;2023-02-28T17:40:00;103159.99999999999;;;6.3;48.2
67345;BME280;54230;52.402;6.276;2023-02-28T17:45:00;103170.0;;;6.1;48.5
67345;BME280;54230;52.402;6.276;2023-02-28T17:50:00;103170.0;;;6.0;49.3
67345;BME280;54230;52.402;6.276;2023-02-28T17:55:00;103180.0;;;5.9;49.3
67345;BME280;54230;52.402;6.276;2023-02-28T18:00:00;103180.0;;;5.8;49.6
67345;BME280;54230;52.402;6.276;2023-02-28T18:05:00;103180.0;;;5.8;49.9
67345;BME280;54230;52.402;6.276;2023-02-28T18:10:00;103180.0;;;5.7;49.7
67345;BME280;54230;52.402;6.276;2023-02-28T18:15:00;103180.0;;;5.6;50.1
67345;BME280;54230;52.402;6.276;2023-02-28T18:20:00;103180.0;;;5.1;51.2
67345;BME280;54230;52.402;6.276;2023-02-28T18:25:00;103159.99999999999;;;4.7;52.0
67345;BME280;54230;52.402;6.276;2023-02-28T18:30:00;103180.0;;;4.8;52.1
67345;BME280;54230;52.402;6.276;2023-02-28T18:35:00;103180.0;;;4.9;52.3
67345;BME280;54230;52.402;6.276;2023-02-28T18:40:00;103180.0;;;4.8;52.5
67345;BME280;54230;52.402;6.276;2023-02-28T18:45:00;103170.0;;;4.7;53.1
67345;BME280;54230;52.402;6.276;2023-02-28T18:50:00;103170.0;;;4.6;53.9
67345;BME280;54230;52.402;6.276;2023-02-28T18:55:00;103170.0;;;4.5;54.0
67345;BME280;54230;52.402;6.276;2023-02-28T19:00:00;103170.0;;;4.4;54.3
67345;BME280;54230;52.402;6.276;2023-02-28T19:05:00;103180.0;;;4.3;54.4
67345;BME280;54230;52.402;6.276;2023-02-28T19:10:00;103180.0;;;4.2;55.0
67345;BME280;54230;52.402;6.276;2023-02-28T19:15:00;103180.0;;;4.1;55.2
67345;BME280;54230;52.402;6.276;2023-02-28T19:20:00;103180.0;;;4.0;55.1
67345;BME280;54230;52.402;6.276;2023-02-28T19:25:00;103190.00000000001;;;3.9;55.4
67345;BME280;54230;52.402;6.276;2023-02-28T19:30:01;103190.00000000001;;;3.9;55.9
67345;BME280;54230;52.402;6.276;2023-02-28T19:35:00;103190.00000000001;;;3.8;56.0
67345;BME280;54230;52.402;6.276;2023-02-28T19:40:00;103200.0;;;3.7;55.7
67345;BME280;54230;52.402;6.276;2023-02-28T19:45:00;103200.0;;;3.6;56.0
67345;BME280;54230;52.402;6.276;2023-02-28T19:50:00;103209.99999999999;;;3.4;56.7
67345;BME280;54230;52.402;6.276;2023-02-28T19:55:00;103209.99999999999;;;3.5;56.8
67345;BME280;54230;52.402;6.276;2023-02-28T20:00:00;103209.99999999999;;;3.3;57.7
67345;BME280;54230;52.402;6.276;2023-02-28T20:05:00;103209.99999999999;;;3.2;58.1
67345;BME280;54230;52.402;6.276;2023-02-28T20:10:00;103209.99999999999;;;3.2;58.3
67345;BME280;54230;52.402;6.276;2023-02-28T20:15:00;103209.99999999999;;;3.1;58.5
67345;BME280;54230;52.402;6.276;2023-02-28T20:20:00;103209.99999999999;;;3.0;59.1
67345;BME280;54230;52.402;6.276;2023-02-28T20:25:00;103209.99999999999;;;2.9;59.6
67345;BME280;54230;52.402;6.276;2023-02-28T20:30:00;103220.0;;;2.7;60.7
67345;BME280;54230;52.402;6.276;2023-02-28T20:35:00;103220.0;;;2.6;60.9
67345;BME280;54230;52.402;6.276;2023-02-28T20:40:00;103230.0;;;2.5;61.4
67345;BME280;54230;52.402;6.276;2023-02-28T20:45:00;103230.0;;;2.5;61.8
67345;BME280;54230;52.402;6.276;2023-02-28T20:50:00;103230.0;;;2.4;62.4
67345;BME280;54230;52.402;6.276;2023-02-28T20:55:00;103230.0;;;2.3;62.9
67345;BME280;54230;52.402;6.276;2023-02-28T21:00:00;103230.0;;;2.3;62.9
67345;BME280;54230;52.402;6.276;2023-02-28T21:05:00;103230.0;;;2.2;63.2
67345;BME280;54230;52.402;6.276;2023-02-28T21:10:00;103220.0;;;2.1;63.8
67345;BME280;54230;52.402;6.276;2023-02-28T21:15:00;103230.0;;;2.0;64.0
67345;BME280;54230;52.402;6.276;2023-02-28T21:20:00;103220.0;;;1.9;64.1
67345;BME280;54230;52.402;6.276;2023-02-28T21:25:00;103200.0;;;1.7;64.3
67345;BME280;54230;52.402;6.276;2023-02-28T21:30:00;103209.99999999999;;;1.7;64.2
67345;BME280;54230;52.402;6.276;2023-02-28T21:35:00;103209.99999999999;;;1.7;63.8
67345;BME280;54230;52.402;6.276;2023-02-28T21:40:00;103220.0;;;1.6;64.5
67345;BME280;54230;52.402;6.276;2023-02-28T21:45:00;103230.0;;;1.5;63.1
67345;BME280;54230;52.402;6.276;2023-02-28T21:50:00;103230.0;;;1.4;64.1
67345;BME280;54230;52.402;6.276;2023-02-28T21:55:00;103240.00000000001;;;1.3;64.5
67345;BME280;54230;52.402;6.276;2023-02-28T22:00:00;103250.0;;;1.3;64.3
67345;BME280;54230;52.402;6.276;2023-02-28T22:05:00;103250.0;;;1.2;64.2
67345;BME280;54230;52.402;6.276;2023-02-28T22:10:00;103250.0;;;1.0;64.9
67345;BME280;54230;52.402;6.276;2023-02-28T22:15:00;103240.00000000001;;;0.9;65.0
67345;BME280;54230;52.402;6.276;2023-02-28T22:20:00;103240.00000000001;;;0.9;65.1
67345;BME280;54230;52.402;6.276;2023-02-28T22:25:00;103190.00000000001;;;0.6;65.1
67345;BME280;54230;52.402;6.276;2023-02-28T22:30:00;103240.00000000001;;;0.8;65.1
67345;BME280;54230;52.402;6.276;2023-02-28T22:35:00;103230.0;;;0.7;65.2
67345;BME280;54230;52.402;6.276;2023-02-28T22:40:00;103240.00000000001;;;0.7;65.4
67345;BME280;54230;52.402;6.276;2023-02-28T22:45:00;103209.99999999999;;;0.4;66.3
67345;BME280;54230;52.402;6.276;2023-02-28T22:50:00;103250.0;;;0.5;66.4
67345;BME280;54230;52.402;6.276;2023-02-28T22:55:00;103230.0;;;0.3;66.7
67345;BME280;54230;52.402;6.276;2023-02-28T23:00:00;103250.0;;;0.4;67.0
67345;BME280;54230;52.402;6.276;2023-02-28T23:05:00;103250.0;;;0.3;67.2
67345;BME280;54230;52.402;6.276;2023-02-28T23:10:03;103250.0;;;0.3;67.1
67345;BME280;54230;52.402;6.276;2023-02-28T23:15:00;103250.0;;;0.2;67.3
67345;BME280;54230;52.402;6.276;2023-02-28T23:20:00;103259.99999999999;;;0.2;67.6
67345;BME280;54230;52.402;6.276;2023-02-28T23:25:00;103259.99999999999;;;0.2;67.6
67345;BME280;54230;52.402;6.276;2023-02-28T23:30:00;103259.99999999999;;;0.1;67.6
67345;BME280;54230;52.402;6.276;2023-02-28T23:35:00;103259.99999999999;;;0.0;67.8
67345;BME280;54230;52.402;6.276;2023-02-28T23:40:00;103270.0;;;-0.0;68.1
67345;BME280;54230;52.402;6.276;2023-02-28T23:45:00;103270.0;;;-0.2;68.4
67345;BME280;54230;52.402;6.276;2023-02-28T23:50:00;103270.0;;;-0.2;68.4
67345;BME280;54230;52.402;6.276;2023-02-28T23:55:00;103270.0;;;-0.2;68.5
